ADDS METAR Data INFO
IDs: Format: Raw Decoded Include TAF

Data at: 2335 UTC 19 Oct 2017

KCYS 192253Z 20010KT 10SM CLR 19/M03 A2997 RMK AO2 SLP090 T01941033
KCYS 192153Z 18009KT 10SM CLR 21/M06 A2997 RMK AO2 SLP093 T02111061
KCYS 192053Z 16005KT 10SM CLR 23/M09 A2998 RMK AO2 SLP094 T02281094 56026
KCYS 191953Z VRB04KT 10SM CLR 23/M10 A3000 RMK AO2 SLP100 T02281100
KCYS 191853Z 15005KT 10SM CLR 23/M09 A3004 RMK AO2 SLP107 T02281094
KCYS 191753Z 13007KT 10SM CLR 22/M09 A3007 RMK AO2 SLP117 T02171094 10217 20039 58007
KCYS 191653Z 17007KT 10SM CLR 21/M06 A3009 RMK AO2 SLP128 T02061061
KCYS 191553Z 28007KT 10SM CLR 18/M06 A3010 RMK AO2 SLP135 T01781061
KCYS 191453Z 27008KT 10SM CLR 12/M06 A3009 RMK AO2 SLP140 T01221061 55002
KCYS 191353Z 29011KT 10SM CLR 07/M08 A3009 RMK AO2 SLP144 T00671078
KCYS 191253Z 27011KT 10SM CLR 04/M07 A3009 RMK AO2 SLP148 T00441072
KCYS 191153Z 28010KT 10SM CLR 06/M07 A3010 RMK AO2 SLP137 T00611072 10078 20017 56007
KCYS 191053Z AUTO 29012KT 10SM CLR 06/M07 A3010 RMK AO2 SLP133 T00561072
KCYS 190953Z AUTO 28010KT 10SM CLR 04/M06 A3011 RMK AO2 SLP138 T00391061
KCYS 190853Z AUTO 28007KT 10SM CLR 02/M06 A3012 RMK AO2 SLP149 T00221056 56010
KCYS 190753Z AUTO 28008KT 10SM CLR 03/M05 A3013 RMK AO2 SLP149 T00331050
KCYS 190653Z AUTO 28006KT 10SM CLR 06/M05 A3015 RMK AO2 SLP149 T00611050 402330056
KCYS 190553Z AUTO 28003KT 10SM CLR 08/M07 A3016 RMK AO2 SLP151 T00781067 10189 20067 58004
KCYS 190453Z AUTO 21005KT 10SM CLR 07/M07 A3018 RMK AO2 SLP165 T00671067
KCYS 190353Z 25006KT 10SM CLR 08/M06 A3018 RMK AO2 SLP169 T00781056
KCYS 190253Z 18006KT 10SM CLR 11/M07 A3018 RMK AO2 SLP167 T01111067 50006
KCYS 190153Z 16008KT 10SM CLR 13/M07 A3018 RMK AO2 SLP166 T01281067
KCYS 190053Z 11006KT 10SM CLR 15/M08 A3017 RMK AO2 SLP160 T01501078
KCYS 182353Z 22009KT 10SM CLR 19/M11 A3016 RMK AO2 SLP142 T01891106 10233 20183 53003
KCYS 182253Z 29007KT 10SM CLR 22/M16 A3014 RMK AO2 SLP134 T02221156
KCYS 182153Z 27013G16KT 10SM CLR 23/M13 A3015 RMK AO2 SLP129 T02281128
KCYS 182053Z 31006KT 10SM CLR 22/M13 A3015 RMK AO2 SLP128 T02221128 56015
KCYS 181953Z 32008KT 10SM CLR 22/M13 A3016 RMK AO2 SLP135 T02221133
KCYS 181853Z 33006KT 10SM CLR 21/M14 A3018 RMK AO2 SLP143 T02111139
KCYS 181753Z 29010G20KT 10SM CLR 21/M13 A3020 RMK AO2 SLP151 T02061128 10206 20111 51013
KCYS 181653Z 28017G25KT 10SM CLR 19/M13 A3019 RMK AO2 SLP153 T01891128
KCYS 181553Z 29011G21KT 10SM CLR 17/M12 A3018 RMK AO2 SLP162 T01671117
KCYS 181453Z 28017G24KT 10SM CLR 13/M12 A3015 RMK AO2 PK WND 28027/1431 SLP161 T01331117 51011
KCYS 181353Z 24011G19KT 10SM CLR 13/M13 A3014 RMK AO2 WSHFT 1328 SLP157 T01281128
KCYS 181348Z 25010G19KT 10SM CLR 13/M13 A3014 RMK AO2 WSHFT 1328
KCYS 181253Z 29014KT 10SM CLR 12/M12 A3011 RMK AO2 PK WND 28029/1205 SLP140 T01171122
KCYS 181153Z 29018KT 10SM CLR 13/M13 A3008 RMK AO2 PK WND 28026/1139 SLP114 T01331128 10156 20111 53004